Time;durP1;ratioP1;P1;durP2;ratioP2;P2;SDS_P1;SDS_P2;PMS_P1;PMS_P2;Temp;Humidity;BMP_temperature;BMP_pressure;BME280_temperature;BME280_humidity;BME280_pressure;Samples;Min_cycle;Max_cycle;Signal;HPM_P1;HPM_P2
2023/08/25 00:01:16;;;;;;;1.10;0.93;;;26.50;70.40;;;;;;6125191;23;20433;-74
2023/08/25 00:03:43;;;;;;;2.70;1.30;;;;;;;;;;6134882;23;20543;-73
2023/08/25 00:06:09;;;;;;;3.20;1.13;;;;;;;;;;6134821;23;20076;-74
2023/08/25 00:08:36;;;;;;;1.42;0.88;;;;;;;;;;6134711;23;20068;-73
2023/08/25 00:11:02;;;;;;;1.02;0.80;;;;;;;;;;6135257;23;20077;-73
2023/08/25 00:13:28;;;;;;;1.33;1.13;;;;;;;;;;6134632;23;19998;-73
2023/08/25 00:15:54;;;;;;;1.05;0.95;;;;;;;;;;6134554;23;20087;-73
2023/08/25 00:18:20;;;;;;;1.10;1.00;;;;;;;;;;6134562;23;19998;-73
2023/08/25 00:20:48;;;;;;;1.90;1.20;;;26.40;73.70;;;;;;6134553;23;20467;-73
2023/08/25 00:23:15;;;;;;;1.38;0.90;;;;;;;;;;6134654;23;19998;-73
2023/08/25 00:25:44;;;;;;;1.35;1.00;;;26.40;73.80;;;;;;6134827;23;20045;-73
2023/08/25 00:28:10;;;;;;;1.83;1.10;;;;;;;;;;6134672;23;20093;-73
2023/08/25 00:30:36;;;;;;;1.38;0.82;;;;;;;;;;6134681;23;20487;-74
2023/08/25 00:33:02;;;;;;;1.58;1.00;;;;;;;;;;6134756;23;20029;-74
2023/08/25 00:35:29;;;;;;;1.30;1.08;;;;;;;;;;6134603;23;20006;-74
2023/08/25 00:37:54;;;;;;;2.25;1.08;;;;;;;;;;6135121;23;20044;-72
2023/08/25 00:40:20;;;;;;;1.20;0.98;;;;;;;;;;6134462;23;19994;-73
2023/08/25 00:42:46;;;;;;;0.73;0.70;;;;;;;;;;6134532;23;20517;-73
2023/08/25 00:45:12;;;;;;;1.20;1.10;;;;;;;;;;6134262;23;20001;-75
2023/08/25 00:47:39;;;;;;;0.77;0.77;;;;;;;;;;6124757;23;20002;-73
2023/08/25 00:50:08;;;;;;;1.75;1.10;;;26.30;74.10;;;;;;6132722;23;20009;-74
2023/08/25 00:52:35;;;;;;;0.70;0.60;;;25.90;72.20;;;;;;6124409;23;20001;-74
2023/08/25 00:55:02;;;;;;;0.93;0.70;;;;;;;;;;6124828;23;20331;-74
2023/08/25 00:57:31;;;;;;;1.63;1.00;;;;;;;;;;6124788;23;20048;-75
2023/08/25 00:59:58;;;;;;;1.98;1.10;;;26.30;71.20;;;;;;6124375;23;20383;-74
2023/08/25 01:02:25;;;;;;;1.10;1.00;;;;;;;;;;6124329;23;20056;-73
2023/08/25 01:04:51;;;;;;;1.13;0.80;;;;;;;;;;6124781;23;20078;-74
2023/08/25 01:07:18;;;;;;;1.20;1.10;;;;;;;;;;6124659;23;20081;-74
2023/08/25 01:09:46;;;;;;;1.55;0.98;;;;;;;;;;6124549;23;20006;-74
2023/08/25 01:12:48;;;;;;;1.05;0.75;;;26.30;74.40;;;;;;6124126;23;20053;-75
2023/08/25 01:15:29;;;;;;;1.58;0.90;;;26.30;68.40;;;;;;6079132;23;20315;-74
2023/08/25 01:18:32;;;;;;;1.75;1.15;;;26.20;68.90;;;;;;6124897;23;20350;-74
2023/08/25 01:20:59;;;;;;;1.95;0.82;;;;;;;;;;6034704;23;20040;-73
2023/08/25 01:24:06;;;;;;;1.00;0.77;;;26.10;68.60;;;;;;6108165;23;19998;-74
2023/08/25 01:26:33;;;;;;;1.23;1.00;;;;;;;;;;6075536;23;19999;-74
2023/08/25 01:28:59;;;;;;;1.00;0.90;;;;;;;;;;6124663;23;20006;-75
2023/08/25 01:31:26;;;;;;;0.85;0.77;;;;;;;;;;6124159;23;20002;-74
2023/08/25 01:33:53;;;;;;;1.27;1.05;;;;;;;;;;6124437;23;20326;-74
2023/08/25 01:36:49;;;;;;;1.70;0.80;;;26.10;68.50;;;;;;6124264;23;20025;-73
2023/08/25 01:39:16;;;;;;;1.58;0.80;;;26.10;73.20;;;;;;6124012;23;20430;-73
2023/08/25 01:41:55;;;;;;;1.15;0.80;;;26.10;68.60;;;;;;6124413;23;20025;-73
2023/08/25 01:44:22;;;;;;;1.65;0.98;;;;;;;;;;6124046;23;20434;-73
2023/08/25 01:46:57;;;;;;;1.00;0.85;;;26.20;74.40;;;;;;6124136;23;20445;-73
2023/08/25 01:49:40;;;;;;;1.10;0.90;;;;;;;;;;6123734;23;20057;-73
2023/08/25 01:52:09;;;;;;;1.52;0.90;;;26.20;74.50;;;;;;6123896;23;20009;-74
2023/08/25 01:54:36;;;;;;;1.00;0.85;;;;;;;;;;6124464;23;20006;-74
2023/08/25 01:57:02;;;;;;;1.15;0.77;;;;;;;;;;6124012;23;20521;-74
2023/08/25 01:59:29;;;;;;;1.35;0.90;;;;;;;;;;6123969;23;20401;-74
2023/08/25 02:01:55;;;;;;;1.80;1.00;;;;;;;;;;6124228;23;20004;-74
2023/08/25 02:04:23;;;;;;;1.42;1.05;;;;;;;;;;6124730;23;20013;-75
2023/08/25 02:06:50;;;;;;;1.25;0.90;;;;;;;;;;6124264;23;20021;-74
2023/08/25 02:09:16;;;;;;;1.00;0.77;;;;;;;;;;6123842;23;20002;-73
2023/08/25 02:11:43;;;;;;;1.25;0.90;;;;;;;;;;6124247;23;20398;-74
2023/08/25 02:14:09;;;;;;;1.00;0.73;;;;;;;;;;6124054;23;20009;-74
2023/08/25 02:16:36;;;;;;;1.17;0.80;;;;;;;;;;6125897;23;20338;-74
2023/08/25 02:19:02;;;;;;;1.10;0.75;;;;;;;;;;6125970;23;19998;-74
2023/08/25 02:21:29;;;;;;;1.20;0.85;;;;;;;;;;6125921;23;20010;-74
2023/08/25 02:23:56;;;;;;;0.80;0.80;;;;;;;;;;6125944;23;20002;-74
2023/08/25 02:26:22;;;;;;;1.20;1.02;;;;;;;;;;6126453;23;20041;-74
2023/08/25 02:28:48;;;;;;;1.40;1.02;;;;;;;;;;6126669;23;20013;-74
2023/08/25 02:31:15;;;;;;;1.25;1.00;;;;;;;;;;6126356;23;20006;-75
2023/08/25 02:33:41;;;;;;;1.00;0.77;;;;;;;;;;6126798;23;19998;-73
2023/08/25 02:36:09;;;;;;;1.10;0.73;;;;;;;;;;6125594;23;20010;-73
2023/08/25 02:38:35;;;;;;;1.00;0.70;;;;;;;;;;6126003;23;20346;-75
2023/08/25 02:41:01;;;;;;;2.13;0.68;;;;;;;;;;6135390;23;20002;-73
2023/08/25 02:43:27;;;;;;;2.17;0.90;;;;;;;;;;6135508;23;19998;-74
2023/08/25 02:45:53;;;;;;;1.73;0.90;;;;;;;;;;6135305;23;20433;-74
2023/08/25 02:48:19;;;;;;;1.42;0.70;;;;;;;;;;6135284;23;20005;-75
2023/08/25 02:50:45;;;;;;;1.13;0.65;;;;;;;;;;6135273;23;20049;-75
2023/08/25 02:53:11;;;;;;;1.58;1.08;;;;;;;;;;6135328;23;19998;-75
2023/08/25 02:55:37;;;;;;;1.52;1.10;;;25.90;72.60;;;;;;6148380;23;20002;-75
2023/08/25 02:58:04;;;;;;;1.45;0.68;;;;;;;;;;6125916;23;20283;-75
2023/08/25 03:00:30;;;;;;;0.85;0.55;;;;;;;;;;6135897;23;20362;-74
2023/08/25 03:02:56;;;;;;;1.13;0.90;;;;;;;;;;6125720;23;20334;-74
2023/08/25 03:05:22;;;;;;;2.38;0.88;;;;;;;;;;6135387;23;19998;-74
2023/08/25 03:07:50;;;;;;;0.80;0.70;;;25.80;74.80;;;;;;6135419;23;20433;-74
2023/08/25 03:10:16;;;;;;;1.92;1.15;;;;;;;;;;6135297;23;19998;-74
2023/08/25 03:12:43;;;;;;;1.05;0.90;;;;;;;;;;6135158;23;20002;-74
2023/08/25 03:15:09;;;;;;;1.63;1.00;;;;;;;;;;6135076;23;20002;-74
2023/08/25 03:17:35;;;;;;;1.55;0.90;;;;;;;;;;6135048;23;20066;-74
2023/08/25 03:20:02;;;;;;;0.95;0.70;;;;;;;;;;6125182;23;20002;-74
2023/08/25 03:22:29;;;;;;;1.60;0.82;;;;;;;;;;6125662;23;20038;-74
2023/08/25 03:24:56;;;;;;;1.25;0.70;;;;;;;;;;6125487;23;20002;-74
2023/08/25 03:27:22;;;;;;;1.85;1.10;;;;;;;;;;6125474;23;20298;-74
2023/08/25 03:29:49;;;;;;;1.00;0.77;;;;;;;;;;6125677;23;20005;-75
2023/08/25 03:32:15;;;;;;;1.05;0.90;;;;;;;;;;6125184;23;20010;-75
2023/08/25 03:34:42;;;;;;;1.02;0.80;;;;;;;;;;6125241;23;20445;-74
2023/08/25 03:37:08;;;;;;;1.25;0.90;;;;;;;;;;6124885;23;20021;-75
2023/08/25 03:39:34;;;;;;;2.40;0.85;;;;;;;;;;6134984;23;19998;-75
2023/08/25 03:42:01;;;;;;;1.10;0.80;;;;;;;;;;6135020;23;20077;-74
2023/08/25 03:44:27;;;;;;;1.05;0.73;;;;;;;;;;6135013;23;19994;-74
2023/08/25 03:46:53;;;;;;;1.70;0.93;;;;;;;;;;6134849;23;19998;-74
2023/08/25 03:49:19;;;;;;;1.95;0.77;;;;;;;;;;6134917;23;20381;-74
2023/08/25 03:51:45;;;;;;;0.73;0.70;;;;;;;;;;6135037;23;20048;-74
2023/08/25 03:54:11;;;;;;;2.40;0.80;;;;;;;;;;6134887;23;20072;-74
2023/08/25 03:56:38;;;;;;;1.50;0.80;;;;;;;;;;6125525;23;20025;-74
2023/08/25 03:59:04;;;;;;;0.90;0.90;;;;;;;;;;6135453;23;20334;-75
2023/08/25 04:01:30;;;;;;;1.10;1.00;;;;;;;;;;6134905;23;20002;-75
2023/08/25 04:03:56;;;;;;;4.88;1.10;;;;;;;;;;6134727;23;19998;-75
2023/08/25 04:06:22;;;;;;;2.13;1.20;;;;;;;;;;6134880;23;20002;-75
2023/08/25 04:08:48;;;;;;;1.85;1.10;;;;;;;;;;6134829;23;19994;-75
2023/08/25 04:11:14;;;;;;;1.60;1.50;;;;;;;;;;6134805;23;20279;-74
2023/08/25 04:13:40;;;;;;;1.73;1.60;;;;;;;;;;6134704;23;19998;-74
2023/08/25 04:16:06;;;;;;;1.65;1.33;;;;;;;;;;6134335;23;20085;-74
2023/08/25 04:18:32;;;;;;;1.60;1.50;;;;;;;;;;6134792;23;20006;-76
2023/08/25 04:20:58;;;;;;;1.90;1.73;;;;;;;;;;6125163;23;20002;-75
2023/08/25 04:23:25;;;;;;;2.13;1.92;;;;;;;;;;6134827;23;20009;-75
2023/08/25 04:25:52;;;;;;;1.70;1.60;;;;;;;;;;6135583;23;20006;-75
2023/08/25 04:28:18;;;;;;;2.33;1.98;;;;;;;;;;6134728;23;19997;-75
2023/08/25 04:30:44;;;;;;;2.05;1.88;;;;;;;;;;6134634;23;19998;-75
2023/08/25 04:33:11;;;;;;;2.30;2.20;;;;;;;;;;6134486;23;20323;-75
2023/08/25 04:35:37;;;;;;;2.28;2.00;;;;;;;;;;6124557;23;20009;-74
2023/08/25 04:38:03;;;;;;;2.45;2.25;;;;;;;;;;6134015;23;20081;-75
2023/08/25 04:40:29;;;;;;;4.07;2.63;;;;;;;;;;6134494;23;20009;-75
2023/08/25 04:42:55;;;;;;;2.28;2.17;;;;;;;;;;6134495;23;20002;-75
2023/08/25 04:45:21;;;;;;;2.33;2.13;;;;;;;;;;6134463;23;19998;-74
2023/08/25 04:47:47;;;;;;;2.25;2.03;;;;;;;;;;6134451;23;20009;-75
2023/08/25 04:50:13;;;;;;;2.38;2.20;;;;;;;;;;6132815;23;20073;-75
2023/08/25 04:52:39;;;;;;;2.50;2.03;;;;;;;;;;6124948;23;20073;-74
2023/08/25 04:55:05;;;;;;;2.42;2.22;;;;;;;;;;6134906;23;20072;-75
2023/08/25 04:57:34;;;;;;;1.88;1.77;;;;;;;;;;6124791;23;20380;-74
2023/08/25 05:00:05;;;;;;;2.20;1.98;;;;;;;;;;6124632;23;20002;-75
2023/08/25 05:02:31;;;;;;;2.25;2.03;;;;;;;;;;6124462;23;20579;-77
2023/08/25 05:04:58;;;;;;;1.90;1.60;;;;;;;;;;6124507;23;20334;-76
2023/08/25 05:07:24;;;;;;;1.67;1.58;;;;;;;;;;6134329;23;20068;-75
2023/08/25 05:09:52;;;;;;;1.77;1.55;;;;;;;;;;6134228;23;20401;-74
2023/08/25 05:12:18;;;;;;;1.52;1.40;;;;;;;;;;6134149;23;20002;-75
2023/08/25 05:14:44;;;;;;;1.55;1.45;;;;;;;;;;6134246;23;20078;-74
2023/08/25 05:17:10;;;;;;;1.52;1.33;;;;;;;;;;6134155;23;20010;-75
2023/08/25 05:19:36;;;;;;;1.73;1.63;;;;;;;;;;6134190;23;19998;-75
2023/08/25 05:22:03;;;;;;;1.65;1.55;;;;;;;;;;6134208;23;19998;-75
2023/08/25 05:24:29;;;;;;;2.10;1.50;;;;;;;;;;6134637;23;20029;-75
2023/08/25 05:26:55;;;;;;;1.75;1.23;;;;;;;;;;6134078;23;20002;-75
2023/08/25 05:29:22;;;;;;;1.50;1.40;;;25.90;75.60;;;;;;6134052;23;20323;-74
2023/08/25 05:31:48;;;;;;;1.33;1.10;;;;;;;;;;6134224;23;20097;-74
2023/08/25 05:34:15;;;;;;;2.45;1.23;;;25.60;75.40;;;;;;6134033;23;20052;-75
2023/08/25 05:36:41;;;;;;;1.15;0.98;;;;;;;;;;6133826;23;20367;-75
2023/08/25 05:39:07;;;;;;;2.03;1.23;;;;;;;;;;6134199;23;19998;-75
2023/08/25 05:41:33;;;;;;;1.20;1.10;;;;;;;;;;6133912;23;20447;-75
2023/08/25 05:44:03;;;;;;;1.20;1.08;;;25.60;69.90;;;;;;6124414;23;20334;-74
2023/08/25 05:46:30;;;;;;;1.40;1.00;;;25.60;74.40;;;;;;6123882;23;20457;-74
2023/08/25 05:48:57;;;;;;;1.20;1.10;;;25.60;72.40;;;;;;6124770;23;20465;-74
2023/08/25 05:51:24;;;;;;;0.95;0.90;;;;;;;;;;6126568;23;20437;-75
2023/08/25 05:53:51;;;;;;;1.48;1.05;;;;;;;;;;6126306;23;20014;-75
2023/08/25 05:56:17;;;;;;;1.48;1.17;;;;;;;;;;6126329;23;20041;-74
2023/08/25 05:58:44;;;;;;;1.20;1.10;;;;;;;;;;6126049;23;20032;-74
2023/08/25 06:01:11;;;;;;;2.88;1.25;;;25.70;75.80;;;;;;6126349;23;20045;-75
2023/08/25 06:03:38;;;;;;;1.50;1.30;;;;;;;;;;6125864;23;20081;-75
2023/08/25 06:06:04;;;;;;;1.65;1.30;;;;;;;;;;6126268;23;20387;-75
2023/08/25 06:08:30;;;;;;;2.20;1.30;;;;;;;;;;6135519;23;20307;-75
2023/08/25 06:10:56;;;;;;;2.22;1.25;;;;;;;;;;6135731;23;20278;-75
2023/08/25 06:13:22;;;;;;;2.90;1.65;;;;;;;;;;6135717;23;19997;-75
2023/08/25 06:15:52;;;;;;;3.17;1.70;;;;;;;;;;6135455;23;20006;-76
2023/08/25 06:18:18;;;;;;;2.47;1.40;;;;;;;;;;6135739;23;20450;-76
2023/08/25 06:20:44;;;;;;;2.40;1.77;;;;;;;;;;6126569;23;20342;-75
2023/08/25 06:23:13;;;;;;;1.58;1.40;;;;;;;;;;6125859;23;20050;-74
2023/08/25 06:25:39;;;;;;;3.58;1.80;;;;;;;;;;6126344;23;20085;-75
2023/08/25 06:28:06;;;;;;;5.22;1.98;;;;;;;;;;6128768;23;20002;-75
2023/08/25 06:30:32;;;;;;;3.08;1.98;;;;;;;;;;6126273;23;20337;-75
2023/08/25 06:32:59;;;;;;;7.72;2.72;;;;;;;;;;6135822;23;20391;-74
2023/08/25 06:35:25;;;;;;;2.67;2.20;;;;;;;;;;6135553;23;20070;-74
2023/08/25 06:37:51;;;;;;;3.28;1.95;;;;;;;;;;6135118;23;20010;-74
2023/08/25 06:40:17;;;;;;;4.18;2.50;;;;;;;;;;6135555;23;20025;-74
2023/08/25 06:42:43;;;;;;;3.55;2.20;;;;;;;;;;6135372;23;20013;-72
2023/08/25 06:45:09;;;;;;;5.30;2.00;;;;;;;;;;6135499;23;20009;-73
2023/08/25 06:47:35;;;;;;;4.07;2.63;;;;;;;;;;6125534;23;20426;-72
2023/08/25 06:50:02;;;;;;;5.70;2.92;;;;;;;;;;6126401;23;20369;-71
2023/08/25 06:52:31;;;;;;;4.10;2.78;;;;;;;;;;6126026;23;20022;-73
2023/08/25 06:54:57;;;;;;;6.15;3.20;;;;;;;;;;6135642;23;19998;-77
2023/08/25 06:57:23;;;;;;;4.82;2.88;;;;;;;;;;6135555;23;20006;-76
2023/08/25 06:59:49;;;;;;;5.50;3.40;;;;;;;;;;6135441;23;19998;-74
2023/08/25 07:02:15;;;;;;;5.63;2.70;;;;;;;;;;6135269;23;20009;-73
2023/08/25 07:04:41;;;;;;;4.70;2.95;;;;;;;;;;6135306;23;20484;-73
2023/08/25 07:07:07;;;;;;;6.20;2.75;;;;;;;;;;6135452;23;20002;-73
2023/08/25 07:09:35;;;;;;;4.18;2.83;;;;;;;;;;6135427;23;20065;-73
2023/08/25 07:12:00;;;;;;;5.38;3.28;;;;;;;;;;6135419;23;20028;-71
2023/08/25 07:14:30;;;;;;;5.22;3.35;;;;;;;;;;6135180;23;19998;-72
2023/08/25 07:16:56;;;;;;;3.60;2.67;;;;;;;;;;6126242;23;20330;-74
2023/08/25 07:19:22;;;;;;;4.28;2.92;;;;;;;;;;6135306;23;20294;-74
2023/08/25 07:21:48;;;;;;;7.60;3.60;;;;;;;;;;6135252;23;20056;-75
2023/08/25 07:24:14;;;;;;;4.20;2.83;;;;;;;;;;6135285;23;19998;-75
2023/08/25 07:26:40;;;;;;;4.00;3.08;;;;;;;;;;6125992;23;20030;-75
2023/08/25 07:29:06;;;;;;;6.25;3.20;;;;;;;;;;6135608;23;20059;-75
2023/08/25 07:31:32;;;;;;;3.97;2.83;;;;;;;;;;6135309;23;20001;-75
2023/08/25 07:33:58;;;;;;;4.75;2.97;;;;;;;;;;6135283;23;19998;-75
2023/08/25 07:36:24;;;;;;;3.40;2.63;;;;;;;;;;6134864;23;20102;-75
2023/08/25 07:38:50;;;;;;;11.88;3.03;;;;;;;;;;6135177;23;19997;-75
2023/08/25 07:41:20;;;;;;;4.85;3.15;;;;;;;;;;6135181;23;20069;-75
2023/08/25 07:43:47;;;;;;;4.10;2.75;;;;;;;;;;6125347;23;20006;-75
2023/08/25 07:46:13;;;;;;;4.53;2.50;;;;;;;;;;6125835;23;20008;-73
2023/08/25 07:48:40;;;;;;;3.17;2.55;;;;;;;;;;6125137;23;20378;-73
2023/08/25 07:51:06;;;;;;;7.60;3.08;;;;;;;;;;6125050;23;20005;-73
2023/08/25 07:53:32;;;;;;;6.85;3.05;;;;;;;;;;6148106;23;20020;-73
2023/08/25 07:55:58;;;;;;;5.55;3.17;;;;;;;;;;6134972;23;20002;-73
2023/08/25 07:58:25;;;;;;;3.53;2.80;;;;;;;;;;6135137;23;20406;-75
2023/08/25 08:00:51;;;;;;;5.18;2.92;;;;;;;;;;6134945;23;20049;-75
2023/08/25 08:03:17;;;;;;;4.55;2.50;;;;;;;;;;6134850;23;20005;-75
2023/08/25 08:05:43;;;;;;;2.80;2.47;;;;;;;;;;6135040;23;19998;-75
2023/08/25 08:08:09;;;;;;;3.80;2.53;;;;;;;;;;6134961;23;20008;-75
2023/08/25 08:10:36;;;;;;;4.07;2.45;;;25.70;77.60;;;;;;6135076;23;20062;-75
2023/08/25 08:13:03;;;;;;;7.82;2.67;;;;;;;;;;6134873;23;20512;-75
2023/08/25 08:15:30;;;;;;;4.72;2.70;;;;;;;;;;6135305;23;20009;-73
2023/08/25 08:17:56;;;;;;;3.15;2.83;;;;;;;;;;6134693;23;20038;-73
2023/08/25 08:20:23;;;;;;;5.10;2.40;;;;;;;;;;6125310;23;19998;-73
2023/08/25 08:22:50;;;;;;;3.60;2.53;;;;;;;;;;6124913;23;20017;-72
2023/08/25 08:25:16;;;;;;;3.20;2.50;;;;;;;;;;6125230;23;19998;-73
2023/08/25 08:27:43;;;;;;;3.83;2.42;;;;;;;;;;6125050;23;20006;-73
2023/08/25 08:30:10;;;;;;;3.67;2.78;;;25.80;77.80;;;;;;6124812;23;20037;-72
2023/08/25 08:32:37;;;;;;;5.10;2.67;;;25.80;78.20;;;;;;6124701;23;20433;-72
2023/08/25 08:35:08;;;;;;;5.60;3.00;;;;;;;;;;6125217;23;20002;-72
2023/08/25 08:37:38;;;;;;;4.47;2.78;;;25.70;72.90;;;;;;6125142;23;20018;-71
2023/08/25 08:40:05;;;;;;;4.63;2.60;;;26.60;76.90;;;;;;6124793;23;20041;-71
2023/08/25 08:42:36;;;;;;;3.80;2.60;;;25.80;73.00;;;;;;6125366;23;20017;-72
2023/08/25 08:45:06;;;;;;;4.43;2.30;;;25.90;78.80;;;;;;6124863;23;20001;-73
2023/08/25 08:47:34;;;;;;;4.70;3.00;;;;;;;;;;6125206;23;19998;-75
2023/08/25 08:50:02;;;;;;;7.72;3.03;;;;;;;;;;6124792;23;20431;-74
2023/08/25 08:52:29;;;;;;;4.78;2.70;;;25.80;76.20;;;;;;6125302;23;20068;-74
2023/08/25 08:54:59;;;;;;;4.60;3.13;;;25.80;76.90;;;;;;6125320;23;20002;-75
2023/08/25 08:57:25;;;;;;;3.78;2.60;;;;;;;;;;6125053;23;20010;-73
2023/08/25 08:59:52;;;;;;;4.88;3.10;;;;;;;;;;6125111;23;20430;-73
2023/08/25 09:02:20;;;;;;;5.22;2.88;;;25.80;78.20;;;;;;6125120;23;20030;-71
2023/08/25 09:04:47;;;;;;;4.07;2.50;;;;;;;;;;6125031;23;20321;-75
2023/08/25 09:07:14;;;;;;;3.08;2.78;;;;;;;;;;6124974;23;20060;-72
2023/08/25 09:09:41;;;;;;;4.47;3.10;;;;;;;;;;6124940;23;20274;-72
2023/08/25 09:12:07;;;;;;;3.90;2.55;;;;;;;;;;6126491;23;20006;-74
2023/08/25 09:14:34;;;;;;;4.90;3.17;;;;;;;;;;6124486;23;20476;-74
2023/08/25 09:17:01;;;;;;;7.22;3.00;;;;;;;;;;6124413;23;20090;-75
2023/08/25 09:19:30;;;;;;;5.45;3.05;;;25.90;73.70;;;;;;6134295;23;19998;-76
2023/08/25 09:21:56;;;;;;;4.57;2.60;;;;;;;;;;6134468;23;19998;-75
2023/08/25 09:24:22;;;;;;;4.20;2.60;;;;;;;;;;6134111;23;20262;-73
2023/08/25 09:26:50;;;;;;;3.65;2.85;;;25.90;75.60;;;;;;6134484;23;20009;-73
2023/08/25 09:29:16;;;;;;;6.07;2.70;;;;;;;;;;6134631;23;20054;-73
2023/08/25 09:31:44;;;;;;;6.20;2.80;;;25.90;77.10;;;;;;6124727;23;20378;-73
2023/08/25 09:34:15;;;;;;;4.13;3.25;;;25.90;77.00;;;;;;6125028;23;20330;-73
2023/08/25 09:36:55;;;;;;;4.35;3.13;;;26.00;71.40;;;;;;6124243;23;20088;-72
2023/08/25 09:39:21;;;;;;;4.93;3.33;;;;;;;;;;6125132;23;20433;-75
2023/08/25 09:41:48;;;;;;;3.97;2.83;;;;;;;;;;6125021;23;20025;-75
2023/08/25 09:44:17;;;;;;;4.53;2.95;;;;;;;;;;6124827;23;20315;-75
2023/08/25 09:46:47;;;;;;;4.68;2.83;;;24.40;75.80;;;;;;6124618;23;20010;-75
2023/08/25 09:49:38;;;;;;;5.38;2.75;;;26.00;77.10;;;;;;6124021;23;20006;-75
2023/08/25 09:52:06;;;;;;;6.82;2.95;;;26.00;77.00;;;;;;6124928;23;20002;-72
2023/08/25 09:54:36;;;;;;;4.38;2.67;;;26.10;74.90;;;;;;6124375;23;20464;-72
2023/08/25 09:57:19;;;;;;;3.83;2.75;;;;;;;;;;6124114;23;20022;-72
2023/08/25 09:59:46;;;;;;;5.65;2.78;;;;;;;;;;6124667;23;20053;-72
2023/08/25 10:02:13;;;;;;;5.20;2.72;;;26.10;76.20;;;;;;6124541;23;20006;-72
2023/08/25 10:04:40;;;;;;;5.95;3.10;;;;;;;;;;6124686;23;20002;-71
2023/08/25 10:07:07;;;;;;;4.32;2.85;;;;;;;;;;6124321;23;20006;-72
2023/08/25 10:09:33;;;;;;;5.35;3.28;;;;;;;;;;6125324;23;20082;-77
2023/08/25 10:12:02;;;;;;;5.45;3.13;;;26.20;74.20;;;;;;6134167;23;20064;-75
2023/08/25 10:14:30;;;;;;;3.78;2.83;;;26.20;76.50;;;;;;6134200;23;20001;-73
2023/08/25 10:17:00;;;;;;;4.60;2.80;;;26.00;76.20;;;;;;6124647;23;20383;-73
2023/08/25 10:19:28;;;;;;;5.32;2.67;;;26.40;76.40;;;;;;6124297;23;19994;-73
2023/08/25 10:21:55;;;;;;;3.95;2.85;;;26.50;76.10;;;;;;6134187;23;19998;-72
2023/08/25 10:24:22;;;;;;;5.13;2.63;;;26.60;76.10;;;;;;6134163;23;20001;-74
2023/08/25 10:26:50;;;;;;;3.67;2.97;;;26.60;76.10;;;;;;6134164;23;19998;-71
2023/08/25 10:29:18;;;;;;;6.85;2.72;;;26.60;76.00;;;;;;6147297;23;20065;-73
2023/08/25 10:31:59;;;;;;;4.30;2.40;;;26.60;75.60;;;;;;6134066;23;20334;-72
2023/08/25 10:34:36;;;;;;;3.22;2.40;;;26.70;69.90;;;;;;6134037;23;20325;-73
2023/08/25 10:37:07;;;;;;;7.18;3.00;;;26.20;75.00;;;;;;6135111;23;20045;-71
2023/08/25 10:39:56;;;;;;;4.95;2.70;;;26.80;69.80;;;;;;6135918;23;20026;-71
2023/08/25 10:42:31;;;;;;;3.03;2.25;;;26.80;69.80;;;;;;6135804;23;20329;-71
2023/08/25 10:45:07;;;;;;;2.92;2.45;;;26.80;75.50;;;;;;6135747;23;20029;-73
2023/08/25 10:47:33;;;;;;;4.97;2.40;;;;;;;;;;6135831;23;20005;-72
2023/08/25 10:50:03;;;;;;;3.45;2.60;;;26.80;70.10;;;;;;6135696;23;20009;-73
2023/08/25 10:52:30;;;;;;;6.38;3.15;;;24.90;71.40;;;;;;6135775;23;20001;-75
2023/08/25 10:54:56;;;;;;;5.03;3.33;;;;;;;;;;6136296;23;20078;-73
2023/08/25 10:57:25;;;;;;;3.53;2.90;;;27.10;69.90;;;;;;6135728;23;20010;-73
2023/08/25 10:59:54;;;;;;;3.63;2.78;;;27.20;75.40;;;;;;6135353;23;20121;-72
2023/08/25 11:02:34;;;;;;;3.50;2.78;;;27.20;69.50;;;;;;6124071;23;20345;-73
2023/08/25 11:05:29;;;;;;;4.95;3.45;;;27.30;69.20;;;;;;6125613;23;20005;-74
2023/08/25 11:07:56;;;;;;;4.03;3.63;;;;;;;;;;6125914;23;20052;-72
2023/08/25 11:10:23;;;;;;;5.60;3.95;;;27.30;73.30;;;;;;6135454;23;20029;-73
2023/08/25 11:12:53;;;;;;;6.32;3.90;;;27.40;74.30;;;;;;6135145;23;20445;-73
2023/08/25 11:15:19;;;;;;;7.03;4.10;;;;;;;;;;6135344;23;20483;-72
2023/08/25 11:17:46;;;;;;;4.60;3.28;;;;;;;;;;6125730;23;20014;-72
2023/08/25 11:20:13;;;;;;;6.15;3.80;;;;;;;;;;6125785;23;20002;-73
2023/08/25 11:22:59;;;;;;;7.13;3.92;;;27.50;74.60;;;;;;6125390;23;20017;-74
2023/08/25 11:25:26;;;;;;;4.13;3.33;;;;;;;;;;6125505;23;19995;-75
2023/08/25 11:27:53;;;;;;;7.45;4.28;;;;;;;;;;6125622;23;20002;-74
2023/08/25 11:30:19;;;;;;;6.00;3.67;;;27.40;71.80;;;;;;6135100;23;20002;-75
2023/08/25 11:32:46;;;;;;;6.30;3.90;;;27.30;75.10;;;;;;6135166;23;20008;-75
2023/08/25 11:35:13;;;;;;;9.30;4.18;;;;;;;;;;6125347;23;20456;-75
2023/08/25 11:37:40;;;;;;;6.50;3.70;;;;;;;;;;6125105;23;20410;-75
2023/08/25 11:40:12;;;;;;;3.55;3.25;;;27.40;75.00;;;;;;6125149;23;20002;-75
2023/08/25 11:42:41;;;;;;;5.72;3.63;;;27.50;69.30;;;;;;6126087;23;19998;-75
2023/08/25 11:45:11;;;;;;;4.25;3.53;;;27.60;68.90;;;;;;6125478;23;20006;-75
2023/08/25 11:47:40;;;;;;;3.35;3.00;;;27.70;68.60;;;;;;6125393;23;20077;-75
2023/08/25 11:50:07;;;;;;;5.35;3.20;;;27.70;72.70;;;;;;6125680;23;19998;-75
2023/08/25 11:52:34;;;;;;;6.47;3.40;;;27.60;72.60;;;;;;6125357;23;20339;-75
2023/08/25 11:55:01;;;;;;;4.28;2.90;;;;;;;;;;6124988;23;20433;-73
2023/08/25 11:57:37;;;;;;;4.97;3.00;;;27.40;68.30;;;;;;6125092;23;20450;-73
2023/08/25 12:00:07;;;;;;;4.50;2.78;;;27.60;68.70;;;;;;6125368;23;20002;-73
2023/08/25 12:02:34;;;;;;;4.50;2.97;;;;;;;;;;6125169;23;20065;-72
2023/08/25 12:05:04;;;;;;;5.07;2.92;;;27.60;74.70;;;;;;6147601;23;20461;-73
2023/08/25 12:07:31;;;;;;;5.43;2.80;;;27.70;72.10;;;;;;6135175;23;20001;-74
2023/08/25 12:09:59;;;;;;;4.15;2.70;;;27.60;74.90;;;;;;6125103;23;19994;-73
2023/08/25 12:12:30;;;;;;;7.72;2.78;;;27.60;74.60;;;;;;6125513;23;19998;-73
2023/08/25 12:14:57;;;;;;;4.72;2.30;;;;;;;;;;6125347;23;20065;-73
2023/08/25 12:17:29;;;;;;;3.80;2.47;;;27.60;69.20;;;;;;6125289;23;20391;-72
2023/08/25 12:19:57;;;;;;;3.75;2.33;;;27.60;74.80;;;;;;6124964;23;19994;-73
2023/08/25 12:22:23;;;;;;;5.72;2.75;;;27.60;71.90;;;;;;6134832;23;20022;-73
2023/08/25 12:24:49;;;;;;;5.95;2.72;;;;;;;;;;6134855;23;20063;-73
2023/08/25 12:27:16;;;;;;;4.50;2.33;;;;;;;;;;6134806;23;20441;-72
2023/08/25 12:29:42;;;;;;;3.22;2.22;;;;;;;;;;6134723;23;20025;-73
2023/08/25 12:32:08;;;;;;;5.00;2.63;;;;;;;;;;6134608;23;20025;-73
2023/08/25 12:34:34;;;;;;;3.58;2.42;;;;;;;;;;6134589;23;19998;-73
2023/08/25 12:37:00;;;;;;;4.13;2.22;;;;;;;;;;6134230;23;20441;-73
2023/08/25 12:39:26;;;;;;;3.70;2.35;;;;;;;;;;6134414;23;20029;-73
2023/08/25 12:41:52;;;;;;;4.50;2.22;;;;;;;;;;6134514;23;20033;-74
2023/08/25 12:44:18;;;;;;;4.47;2.33;;;;;;;;;;6124953;23;20009;-73
2023/08/25 12:46:45;;;;;;;3.67;2.13;;;;;;;;;;6125104;23;20329;-73
2023/08/25 12:49:12;;;;;;;4.13;2.20;;;;;;;;;;6125028;23;20349;-76
2023/08/25 12:51:38;;;;;;;2.72;2.20;;;;;;;;;;6134569;23;20508;-78
2023/08/25 12:54:13;;;;;;;5.97;2.40;;;27.80;69.40;;;;;;6134445;23;20060;-76
2023/08/25 12:56:39;;;;;;;3.95;1.95;;;;;;;;;;6124855;23;20013;-75
2023/08/25 12:59:05;;;;;;;6.50;2.10;;;;;;;;;;6124349;23;20428;-76
2023/08/25 13:01:31;;;;;;;2.88;1.85;;;;;;;;;;6134446;23;20065;-75
2023/08/25 13:03:57;;;;;;;2.22;1.88;;;;;;;;;;6134391;23;20069;-75
2023/08/25 13:06:23;;;;;;;6.47;2.20;;;;;;;;;;6134434;23;19998;-75
2023/08/25 13:08:49;;;;;;;3.47;1.70;;;;;;;;;;6134416;23;20002;-76
2023/08/25 13:11:15;;;;;;;4.18;2.22;;;;;;;;;;6134237;23;20030;-75
2023/08/25 13:13:41;;;;;;;4.03;2.00;;;;;;;;;;6134326;23;19998;-75
2023/08/25 13:16:10;;;;;;;7.10;2.33;;;;;;;;;;6124338;23;20009;-76
2023/08/25 13:18:37;;;;;;;3.63;2.22;;;27.70;72.20;;;;;;6124550;23;20002;-76
2023/08/25 13:21:03;;;;;;;4.32;1.98;;;;;;;;;;6124355;23;20076;-76
2023/08/25 13:23:29;;;;;;;5.50;2.17;;;;;;;;;;6134255;23;20109;-75
2023/08/25 13:25:55;;;;;;;6.47;2.92;;;;;;;;;;6134026;23;19998;-75
2023/08/25 13:28:21;;;;;;;5.30;2.10;;;;;;;;;;6134134;23;20069;-77
2023/08/25 13:30:49;;;;;;;3.08;1.73;;;;;;;;;;6131548;23;20029;-76
2023/08/25 13:33:15;;;;;;;3.22;1.90;;;;;;;;;;6133987;23;20034;-75
2023/08/25 13:35:41;;;;;;;3.90;2.10;;;;;;;;;;6133920;23;20004;-76
2023/08/25 13:38:07;;;;;;;4.97;2.47;;;;;;;;;;6133806;23;20084;-76
2023/08/25 13:40:33;;;;;;;2.45;2.20;;;;;;;;;;6133966;23;19998;-75
2023/08/25 13:42:59;;;;;;;4.32;2.88;;;;;;;;;;6134554;23;20012;-76
2023/08/25 13:45:25;;;;;;;4.63;2.30;;;;;;;;;;6134003;23;20068;-76
2023/08/25 13:47:52;;;;;;;7.50;3.00;;;;;;;;;;6124218;23;20002;-77
2023/08/25 13:50:18;;;;;;;4.00;2.53;;;;;;;;;;6124488;23;20275;-76
2023/08/25 13:52:45;;;;;;;5.18;2.50;;;;;;;;;;6123967;23;20006;-76
2023/08/25 13:55:11;;;;;;;3.70;2.95;;;;;;;;;;6124535;23;20020;-75
2023/08/25 13:57:38;;;;;;;6.18;2.50;;;;;;;;;;6124303;23;20013;-73
2023/08/25 14:00:07;;;;;;;4.28;2.38;;;27.60;75.10;;;;;;6124311;23;20319;-74
2023/08/25 14:02:34;;;;;;;5.10;2.70;;;;;;;;;;6124286;23;20006;-74
2023/08/25 14:05:00;;;;;;;4.90;2.65;;;;;;;;;;6124319;23;20032;-73
2023/08/25 14:07:27;;;;;;;4.78;2.83;;;;;;;;;;6123967;23;20005;-73
2023/08/25 14:09:54;;;;;;;4.05;2.60;;;;;;;;;;6124418;23;20035;-73
2023/08/25 14:12:20;;;;;;;4.15;2.30;;;;;;;;;;6126251;23;20078;-73
2023/08/25 14:14:46;;;;;;;3.42;3.03;;;;;;;;;;6135583;23;20434;-73